KMCF

Macdill AFB Airport

Tampa, Florida, USA
TAF KMCF 190100Z 1901/2007 20006KT 9999 SKC QNH3001INS BECMG 1914/1915 17012KT 9999 FEW060 SCT200 QNH2990INS BECMG 1919/1920 16012KT 9999 SCT100 BKN250 QNH2982INS TX23/1920Z TN13/1912Z
Issued Valid From Valid To
Jan-19 @ 01:00 UTC
(an hour ago)
Jan-19 @ 01:00 UTC
(an hour ago)
Jan-20 @ 07:00 UTC
(-1 days ago)
Jan-19 @ 01:00 to Jan-19 @ 14:00
TAF KMCF 190100Z 1901/2007 20006KT 9999 SKC QNH3001INS
Wind Visibility Clouds Readings
200° at 6 knots Greater than 6 miles
  • Clear skies
Altimeter 30" Hg
Pressure 1015.92 hPa
Becoming Jan-19 @ 14:00 to Jan-19 @ 19:00
BECMG 1914/1915 17012KT 9999 FEW060 SCT200 QNH2990INS
Wind Visibility Clouds Readings
170° at 12 knots Greater than 6 miles
  • Few at 6,000' AGL
  • Scattered at 20,000' AGL
Altimeter 29.91" Hg
Pressure 1012.92 hPa
Becoming Jan-19 @ 19:00 to Jan-20 @ 07:00
BECMG 1919/1920 16012KT 9999 SCT100 BKN250 QNH2982INS TX23/1920Z TN13/1912Z
Wind Visibility Clouds Readings
160° at 12 knots Greater than 6 miles
  • Scattered at 10,000' AGL
  • Broken at 25,000' AGL
Altimeter 29.82" Hg
Pressure 1009.92 hPa
TAF KMCF 190100Z 1901/2007 20006KT 9999 SKC QNH3001INS BECMG 1914/1915 17012KT 9999 FEW060 SCT200 QNH2990INS BECMG 1919/1920 16012KT 9999 SCT100 BKN250 QNH2982INS TX23/1920Z TN13/1912Z
Issued Jan-19 @ 01:00 UTC
(an hour ago)
Valid From Jan-19 @ 01:00 UTC
(an hour ago)
Valid To Jan-20 @ 07:00 UTC
(-1 days ago)
Jan-19 @ 01:00 - Jan-19 @ 14:00
Wind Visibility
200° at 6 knots Greater than 6 miles
Clouds
  • Clear skies
Becoming Jan-19 @ 14:00 - Jan-19 @ 19:00
Wind Visibility
170° at 12 knots Greater than 6 miles
Clouds
  • Few at 6,000' AGL
  • Scattered at 20,000' AGL
Becoming Jan-19 @ 19:00 - Jan-20 @ 07:00
Wind Visibility
160° at 12 knots Greater than 6 miles
Clouds
  • Scattered at 10,000' AGL
  • Broken at 25,000' AGL